Flugplatz Arnsberg-Menden

Für EDLA sind keine METAR/TAF Berichte vorhanden.
Es werden die Flugwettermeldungen vom Flugplatz Dortmund in 20 km Entfernung angezeigt.

Bericht für EDLW

vom 31.05. um 09:50 UTC

Wind 11 kt aus 80°

Sichtweite 10 km oder mehr

gute Sicht, keine Wolken < 5000 ft, keine CB, keine Wettererscheinungen (CAVOK)

Temperatur 17.0°C

Taupunkt 4.0°C

Luftfeuchtigkeit 42%

Luftdruck 1023 hPa

EDLW 310950Z 08011KT 040V110 CAVOK 17/04 Q1023

Prognose für EDLW

vom 31.05. um 05:00 UTC

Zwischen 06:00 UTC und 07:00 UTC

Wind 5 kt aus 50°

Sichtweite 10 km oder mehr

keine signifikanten Wettererscheinungen

keine Wolken


Zwischen 07:00 und 09:00 UTC übergehend zu

Wind 10 kt aus 60°

Sichtweite 10 km oder mehr

keine signifikanten Wettererscheinungen

keine Wolken


Zwischen 15:00 und 17:00 UTC übergehend zu

Wind 5 kt aus 70°

Sichtweite 10 km oder mehr

keine signifikanten Wettererscheinungen

keine Wolken

TAF EDLW 310500Z 3106/0106 05005KT CAVOK BECMG 3107/3109 06010KT BECMG 3115/3117 07005KT
Impressum